If you wish to contribute or participate in the discussions about articles you are invited to join SKYbrary as a registered user

 Actions

Angoulême-Brie-Champniers Airport

From SKYbrary Wiki

LFBU
Airport
ICAO: LFBU – IATA: ANG
Summary
Name Angoulême-Brie-Champniers Airport
Region Europe
Territory France FR.gif
Location , Poitou-Charentes
Serving Angouleme
Elevation 132.893 m
436 ft
436 ft132.893 m
Type medium airport
Coordinates 45° 43' 45.2892", 0° 13' 17.2416"
Runways
Designator Length Width Surface ROPS
10/28 1810 m5,938.32 ft 45 m147.638 ft ASP /


METAR
Observation LFBU 250900Z AUTO 03011KT 9999 // NSC 01/M05 Q1013
Station BRIE CHAMPNIERS
Date/Time 25 February 2018 09:00:00
Wind direction 30°
Wind speed 11 kts
Lowest cloud amount nil significant cloud
Temperature 1°C
Dew point
Humidity 64%
QNH 1013 hPa
Weather condition n/a